createdAt,value
2022-09-14T00:00:12.521Z,15.70
2022-09-14T00:03:00.014Z,15.60
2022-09-14T00:05:47.806Z,15.60
2022-09-14T00:08:37.415Z,15.60
2022-09-14T00:11:28.762Z,15.60
2022-09-14T00:14:18.265Z,15.60
2022-09-14T00:17:05.857Z,15.60
2022-09-14T00:19:53.750Z,15.50
2022-09-14T00:22:41.900Z,15.50
2022-09-14T00:25:29.981Z,15.50
2022-09-14T00:28:18.106Z,15.50
2022-09-14T00:31:06.501Z,15.50
2022-09-14T00:33:54.491Z,15.50
2022-09-14T00:36:46.464Z,15.50
2022-09-14T00:39:33.925Z,15.50
2022-09-14T00:42:21.380Z,15.60
2022-09-14T00:45:21.041Z,15.60
2022-09-14T00:48:09.074Z,15.60
2022-09-14T00:50:57.006Z,15.60
2022-09-14T00:53:44.559Z,15.70
2022-09-14T00:56:32.185Z,15.60
2022-09-14T00:59:31.481Z,15.60
2022-09-14T01:02:23.133Z,15.70
2022-09-14T01:05:12.085Z,15.60
2022-09-14T01:08:19.347Z,15.60
2022-09-14T01:11:18.554Z,15.60
2022-09-14T01:14:42.469Z,15.60
2022-09-14T01:17:47.049Z,15.60
2022-09-14T01:21:10.374Z,15.60
2022-09-14T01:24:17.026Z,15.70
2022-09-14T01:27:21.710Z,15.70
2022-09-14T01:30:15.345Z,15.70
2022-09-14T01:33:21.983Z,15.60
2022-09-14T01:36:14.394Z,15.60
2022-09-14T01:39:03.358Z,15.60
2022-09-14T01:41:54.229Z,15.60
2022-09-14T01:44:47.562Z,15.60
2022-09-14T01:47:46.997Z,15.60
2022-09-14T01:50:47.296Z,15.60
2022-09-14T01:53:50.040Z,15.60
2022-09-14T01:56:51.184Z,15.60
2022-09-14T01:59:46.307Z,15.60
2022-09-14T02:02:44.790Z,15.60
2022-09-14T02:05:59.886Z,15.60
2022-09-14T02:08:47.969Z,15.60
2022-09-14T02:11:36.039Z,15.60
2022-09-14T02:14:24.049Z,15.60
2022-09-14T02:17:12.270Z,15.60
2022-09-14T02:20:04.984Z,15.60
2022-09-14T02:22:53.161Z,15.60
2022-09-14T02:25:41.259Z,15.60
2022-09-14T02:28:28.834Z,15.60
2022-09-14T02:31:42.077Z,15.50
2022-09-14T02:34:45.640Z,15.50
2022-09-14T02:38:08.102Z,15.50
2022-09-14T02:41:03.074Z,15.50
2022-09-14T02:44:27.782Z,15.50
2022-09-14T02:47:38.914Z,15.50
2022-09-14T02:51:12.415Z,15.50
2022-09-14T02:54:20.674Z,15.50
2022-09-14T02:57:09.885Z,15.50
2022-09-14T02:59:57.367Z,15.40
2022-09-14T03:02:44.765Z,15.40
2022-09-14T03:05:33.025Z,15.40
2022-09-14T03:08:20.414Z,15.40
2022-09-14T03:11:08.520Z,15.40
2022-09-14T03:13:55.965Z,15.30
2022-09-14T03:16:43.504Z,15.30
2022-09-14T03:19:30.967Z,15.30
2022-09-14T03:22:18.409Z,15.30
2022-09-14T03:25:06.859Z,15.30
2022-09-14T03:27:59.909Z,15.30
2022-09-14T03:30:47.510Z,15.30
2022-09-14T03:33:35.364Z,15.30
2022-09-14T03:36:25.392Z,15.20
2022-09-14T03:39:12.809Z,15.20
2022-09-14T03:42:00.200Z,15.20
2022-09-14T03:44:47.616Z,15.20
2022-09-14T03:47:35.035Z,15.20
2022-09-14T03:50:22.544Z,15.20
2022-09-14T03:53:10.093Z,15.10
2022-09-14T03:55:58.125Z,15.10
2022-09-14T03:58:47.662Z,15.10
2022-09-14T04:01:35.213Z,15.10
2022-09-14T04:04:22.804Z,15.20
2022-09-14T04:07:10.319Z,15.20
2022-09-14T04:09:57.885Z,15.20
2022-09-14T04:12:45.399Z,15.20
2022-09-14T04:15:32.830Z,15.20
2022-09-14T04:18:20.254Z,15.20
2022-09-14T04:21:13.794Z,15.20
2022-09-14T04:24:14.537Z,15.20
2022-09-14T04:27:03.206Z,15.20
2022-09-14T04:29:51.043Z,15.20
2022-09-14T04:32:38.517Z,15.20
2022-09-14T04:35:25.899Z,15.20
2022-09-14T04:38:13.311Z,15.20
2022-09-14T04:41:14.351Z,15.30
2022-09-14T04:44:02.120Z,15.30
2022-09-14T04:46:49.621Z,15.30
2022-09-14T04:49:37.074Z,15.30
2022-09-14T04:52:24.844Z,15.30
2022-09-14T04:55:12.249Z,15.30
2022-09-14T04:57:59.685Z,15.30
2022-09-14T05:00:47.079Z,15.30
2022-09-14T05:03:35.979Z,15.30
2022-09-14T05:06:27.434Z,15.40
2022-09-14T05:09:18.685Z,15.40
2022-09-14T05:12:06.669Z,15.40
2022-09-14T05:14:54.104Z,15.50
2022-09-14T05:17:41.534Z,15.50
2022-09-14T05:20:29.767Z,15.50
2022-09-14T05:23:17.174Z,15.60
2022-09-14T05:26:06.565Z,15.60
2022-09-14T05:28:58.109Z,15.60
2022-09-14T05:31:46.850Z,15.60
2022-09-14T05:34:34.408Z,15.60
2022-09-14T05:37:21.846Z,15.70
2022-09-14T05:40:10.394Z,15.70
2022-09-14T05:42:58.055Z,15.80
2022-09-14T05:45:45.505Z,15.80
2022-09-14T05:48:34.644Z,15.80
2022-09-14T05:51:25.658Z,15.80
2022-09-14T05:54:13.126Z,15.90
2022-09-14T05:57:00.534Z,16.00
2022-09-14T05:59:47.954Z,16.10
2022-09-14T06:02:35.360Z,16.30
2022-09-14T06:05:25.664Z,16.40
2022-09-14T06:08:13.085Z,16.60
2022-09-14T06:11:15.155Z,16.80
2022-09-14T06:14:03.050Z,16.90
2022-09-14T06:16:50.665Z,17.00
2022-09-14T06:19:38.129Z,17.00
2022-09-14T06:22:25.529Z,17.00
2022-09-14T06:25:12.955Z,17.10
2022-09-14T06:28:00.404Z,17.10
2022-09-14T06:30:47.857Z,17.20
2022-09-14T06:33:35.951Z,17.20
2022-09-14T06:36:27.559Z,17.10
2022-09-14T06:39:15.104Z,17.10
2022-09-14T06:42:02.750Z,17.10
2022-09-14T06:44:51.086Z,17.10
2022-09-14T06:47:38.515Z,17.10
2022-09-14T06:50:26.695Z,17.10
2022-09-14T06:53:14.243Z,17.20
2022-09-14T06:56:01.745Z,17.30
2022-09-14T06:58:50.700Z,17.40
2022-09-14T07:01:40.849Z,17.50
2022-09-14T07:04:28.319Z,17.50
2022-09-14T07:07:16.701Z,17.40
2022-09-14T07:10:04.744Z,17.30
2022-09-14T07:12:52.146Z,17.30
2022-09-14T07:15:39.560Z,17.30
2022-09-14T07:18:29.156Z,17.40
2022-09-14T07:21:19.583Z,17.50
2022-09-14T07:24:07.709Z,17.60
2022-09-14T07:26:55.129Z,17.70
2022-09-14T07:29:42.565Z,17.80
2022-09-14T07:32:30.652Z,17.80
2022-09-14T07:35:18.075Z,17.90
2022-09-14T07:38:05.443Z,17.80
2022-09-14T07:40:53.410Z,17.80
2022-09-14T07:43:40.879Z,17.80
2022-09-14T07:46:33.499Z,17.80
2022-09-14T07:49:22.479Z,17.70
2022-09-14T07:52:11.340Z,17.80
2022-09-14T07:54:58.844Z,17.80
2022-09-14T07:57:56.026Z,17.80
2022-09-14T08:00:44.684Z,17.90
2022-09-14T08:03:32.366Z,17.90
2022-09-14T08:06:26.499Z,17.90
2022-09-14T08:09:14.390Z,17.90
2022-09-14T08:12:02.085Z,17.90
2022-09-14T08:14:51.400Z,17.90
2022-09-14T08:17:39.135Z,17.90
2022-09-14T08:20:26.595Z,18.00
2022-09-14T08:23:14.003Z,18.00
2022-09-14T08:26:08.384Z,18.10
2022-09-14T08:28:57.065Z,18.20
2022-09-14T08:31:46.208Z,18.30
2022-09-14T08:34:34.462Z,18.40
2022-09-14T08:37:22.094Z,18.40
2022-09-14T08:40:13.633Z,18.50
2022-09-14T08:43:04.299Z,18.60
2022-09-14T08:46:06.365Z,18.70
2022-09-14T08:48:54.544Z,18.80
2022-09-14T08:51:43.166Z,19.00
2022-09-14T08:54:33.506Z,19.10
2022-09-14T08:57:43.075Z,19.30
2022-09-14T09:00:54.196Z,19.50
2022-09-14T09:04:03.073Z,19.60
2022-09-14T09:07:05.400Z,19.70
2022-09-14T09:09:57.051Z,19.80
2022-09-14T09:13:06.785Z,19.90
2022-09-14T09:16:01.085Z,20.00
2022-09-14T09:19:05.976Z,20.00
2022-09-14T09:21:54.480Z,19.90
2022-09-14T09:24:47.830Z,20.00
2022-09-14T09:27:35.271Z,20.00
2022-09-14T09:30:22.805Z,19.90
2022-09-14T09:33:24.094Z,19.90
2022-09-14T09:36:15.255Z,19.90
2022-09-14T09:39:05.409Z,20.10
2022-09-14T09:42:12.454Z,20.10
2022-09-14T09:45:06.163Z,20.20
2022-09-14T09:47:53.610Z,20.40
2022-09-14T09:51:27.119Z,20.50
2022-09-14T09:54:14.494Z,20.70
2022-09-14T09:57:07.586Z,20.80
2022-09-14T10:00:23.604Z,20.80
2022-09-14T10:03:36.130Z,20.90
2022-09-14T10:06:23.621Z,21.00
2022-09-14T10:09:21.314Z,21.10
2022-09-14T10:12:16.840Z,21.20
2022-09-14T10:15:22.216Z,21.40
2022-09-14T10:18:18.956Z,21.60
2022-09-14T10:21:09.769Z,21.90
2022-09-14T10:24:26.384Z,22.10
2022-09-14T10:27:42.164Z,22.40
2022-09-14T10:30:43.772Z,22.80
2022-09-14T10:33:31.239Z,22.80
2022-09-14T10:36:32.314Z,23.00
2022-09-14T10:39:39.209Z,23.30
2022-09-14T10:42:54.738Z,23.50
2022-09-14T10:45:53.250Z,23.80
2022-09-14T10:49:10.266Z,23.90
2022-09-14T10:52:24.389Z,23.90
2022-09-14T10:55:34.557Z,23.50
2022-09-14T10:59:02.872Z,23.50
2022-09-14T11:02:29.728Z,23.40
2022-09-14T11:05:38.164Z,23.50
2022-09-14T11:08:47.906Z,23.80
2022-09-14T11:11:53.524Z,24.00
2022-09-14T11:15:02.529Z,24.20
2022-09-14T11:18:27.660Z,24.40
2022-09-14T11:21:44.544Z,24.70
2022-09-14T11:25:01.274Z,24.80
2022-09-14T11:28:27.625Z,24.80
2022-09-14T11:31:30.854Z,24.80
2022-09-14T11:34:41.810Z,24.90
2022-09-14T11:37:47.623Z,24.80
2022-09-14T11:41:45.094Z,24.60
2022-09-14T11:44:42.385Z,24.50
2022-09-14T11:47:41.994Z,24.40
2022-09-14T11:50:33.184Z,24.30
2022-09-14T11:53:24.439Z,24.30
2022-09-14T11:56:34.097Z,24.30
2022-09-14T11:59:42.519Z,24.30
2022-09-14T12:02:45.652Z,24.30
2022-09-14T12:05:35.110Z,24.50
2022-09-14T12:08:38.174Z,24.60
2022-09-14T12:11:34.710Z,24.60
2022-09-14T12:14:28.776Z,24.60
2022-09-14T12:17:39.743Z,24.60
2022-09-14T12:20:37.753Z,24.60
2022-09-14T12:23:37.312Z,24.70
2022-09-14T12:26:31.663Z,24.60
2022-09-14T12:29:34.205Z,25.00
2022-09-14T12:32:39.235Z,25.20
2022-09-14T12:35:46.716Z,24.90
2022-09-14T12:39:02.469Z,24.80
2022-09-14T12:41:49.841Z,24.70
2022-09-14T12:44:46.209Z,24.90
2022-09-14T12:47:35.799Z,24.90
2022-09-14T12:50:23.526Z,24.70
2022-09-14T12:53:30.230Z,24.80
2022-09-14T12:56:35.754Z,24.80
2022-09-14T13:00:09.983Z,25.00
2022-09-14T13:03:21.590Z,25.30
2022-09-14T13:06:13.809Z,25.60
2022-09-14T13:09:07.405Z,25.70
2022-09-14T13:12:07.474Z,25.80
2022-09-14T13:15:02.844Z,25.90
2022-09-14T13:18:18.908Z,26.20
2022-09-14T13:21:25.078Z,26.30
2022-09-14T13:24:43.293Z,26.60
2022-09-14T13:27:33.998Z,26.40
2022-09-14T13:30:27.214Z,26.20
2022-09-14T13:33:18.715Z,26.40
2022-09-14T13:36:06.839Z,26.60
2022-09-14T13:38:55.993Z,26.60
2022-09-14T13:41:45.009Z,26.60
2022-09-14T13:44:47.181Z,26.70
2022-09-14T13:47:35.045Z,26.70
2022-09-14T13:50:25.507Z,26.70
2022-09-14T13:53:48.978Z,26.50
2022-09-14T13:56:36.634Z,26.40
2022-09-14T13:59:24.160Z,26.20
2022-09-14T14:02:14.283Z,26.00
2022-09-14T14:05:03.446Z,25.90
2022-09-14T14:07:52.056Z,25.80
2022-09-14T14:10:47.504Z,25.70
2022-09-14T14:13:38.354Z,25.60
2022-09-14T14:16:30.213Z,25.50
2022-09-14T14:19:30.050Z,25.50
2022-09-14T14:22:32.634Z,25.60
2022-09-14T14:25:29.088Z,25.60
2022-09-14T14:28:30.479Z,25.70
2022-09-14T14:31:22.088Z,25.80
2022-09-14T14:34:30.454Z,25.90
2022-09-14T14:37:17.899Z,25.90
2022-09-14T14:40:06.219Z,26.00
2022-09-14T14:42:55.301Z,26.00
2022-09-14T14:45:42.841Z,26.10
2022-09-14T14:48:31.604Z,26.00
2022-09-14T14:51:19.109Z,26.30
2022-09-14T14:54:07.365Z,26.30
2022-09-14T14:56:56.004Z,26.40
2022-09-14T14:59:43.465Z,26.30
2022-09-14T15:02:30.870Z,26.00
2022-09-14T15:05:19.719Z,25.70
2022-09-14T15:08:07.245Z,25.10
2022-09-14T15:10:57.831Z,24.80
2022-09-14T15:13:46.729Z,24.70
2022-09-14T15:16:34.310Z,24.50
2022-09-14T15:19:21.806Z,24.50
2022-09-14T15:22:10.705Z,24.40
2022-09-14T15:24:58.221Z,24.40
2022-09-14T15:27:46.084Z,24.40
2022-09-14T15:30:33.546Z,24.50
2022-09-14T15:33:21.024Z,24.50
2022-09-14T15:36:08.555Z,24.60
2022-09-14T15:38:57.018Z,24.60
2022-09-14T15:41:44.584Z,24.70
2022-09-14T15:44:33.105Z,24.70
2022-09-14T15:47:20.559Z,24.60
2022-09-14T15:50:08.516Z,24.60
2022-09-14T15:53:00.451Z,24.60
2022-09-14T15:55:50.179Z,24.50
2022-09-14T15:58:37.734Z,24.50
2022-09-14T16:01:25.673Z,24.40
2022-09-14T16:04:13.999Z,24.40
2022-09-14T16:07:02.072Z,24.40
2022-09-14T16:09:49.578Z,24.30
2022-09-14T16:12:36.985Z,24.30
2022-09-14T16:15:24.920Z,24.30
2022-09-14T16:18:12.371Z,24.20
2022-09-14T16:21:13.709Z,24.20
2022-09-14T16:24:06.650Z,24.10
2022-09-14T16:26:54.332Z,24.00
2022-09-14T16:29:41.805Z,24.00
2022-09-14T16:32:29.266Z,23.90
2022-09-14T16:35:16.771Z,23.90
2022-09-14T16:38:04.805Z,23.80
2022-09-14T16:40:59.984Z,23.60
2022-09-14T16:43:47.786Z,23.50
2022-09-14T16:46:35.526Z,23.40
2022-09-14T16:49:27.222Z,23.30
2022-09-14T16:52:15.195Z,23.20
2022-09-14T16:55:02.655Z,23.10
2022-09-14T16:57:50.205Z,23.00
2022-09-14T17:00:40.271Z,22.90
2022-09-14T17:03:31.792Z,22.80
2022-09-14T17:06:26.669Z,22.70
2022-09-14T17:09:19.244Z,22.60
2022-09-14T17:12:07.835Z,22.60
2022-09-14T17:14:55.220Z,22.50
2022-09-14T17:17:42.735Z,22.40
2022-09-14T17:20:30.204Z,22.40
2022-09-14T17:23:17.590Z,22.30
2022-09-14T17:26:08.809Z,22.20
2022-09-14T17:28:58.570Z,22.20
2022-09-14T17:31:46.419Z,22.00
2022-09-14T17:34:34.050Z,21.90
2022-09-14T17:37:21.499Z,21.90
2022-09-14T17:40:10.936Z,21.90
2022-09-14T17:42:58.494Z,21.90
2022-09-14T17:45:55.089Z,21.80
2022-09-14T17:48:43.425Z,21.80
2022-09-14T17:51:32.555Z,21.70
2022-09-14T17:55:31.762Z,21.60
2022-09-14T17:58:19.939Z,21.50
2022-09-14T18:01:18.352Z,21.10
2022-09-14T18:04:12.166Z,20.00
2022-09-14T18:06:59.669Z,19.30
2022-09-14T18:09:47.185Z,18.70
2022-09-14T18:12:36.573Z,18.40
2022-09-14T18:15:23.969Z,18.10
2022-09-14T18:18:11.944Z,18.00
2022-09-14T18:21:01.341Z,18.00
2022-09-14T18:23:51.735Z,17.90
2022-09-14T18:26:39.332Z,17.90
2022-09-14T18:29:27.611Z,17.80
2022-09-14T18:32:15.109Z,17.80
2022-09-14T18:35:02.700Z,17.70
2022-09-14T18:37:50.105Z,17.80
2022-09-14T18:40:38.602Z,17.70
2022-09-14T18:43:26.275Z,17.80
2022-09-14T18:46:14.980Z,17.80
2022-09-14T18:49:03.444Z,17.90
2022-09-14T18:51:51.184Z,18.00
2022-09-14T18:54:38.796Z,18.00
2022-09-14T18:57:28.430Z,18.00
2022-09-14T19:00:18.784Z,18.00
2022-09-14T19:03:07.184Z,18.00
2022-09-14T19:05:55.629Z,18.00
2022-09-14T19:08:44.783Z,18.00
2022-09-14T19:11:33.390Z,18.00
2022-09-14T19:14:22.176Z,18.00
2022-09-14T19:17:09.714Z,18.10
2022-09-14T19:19:57.392Z,18.00
2022-09-14T19:22:44.864Z,18.10
2022-09-14T19:25:38.295Z,18.00
2022-09-14T19:28:25.745Z,18.00
2022-09-14T19:31:20.443Z,18.10
2022-09-14T19:34:08.253Z,18.00
2022-09-14T19:36:56.229Z,18.00
2022-09-14T19:39:43.930Z,17.90
2022-09-14T19:42:31.344Z,17.90
2022-09-14T19:45:19.335Z,17.90
2022-09-14T19:48:06.904Z,17.90
2022-09-14T19:51:03.289Z,17.90
2022-09-14T19:53:56.438Z,17.90
2022-09-14T19:56:46.083Z,17.90
2022-09-14T19:59:33.606Z,17.90
2022-09-14T20:02:21.225Z,17.90
2022-09-14T20:05:10.702Z,17.90
2022-09-14T20:07:58.485Z,17.90
2022-09-14T20:10:45.946Z,17.90
2022-09-14T20:13:34.854Z,17.90
2022-09-14T20:16:31.848Z,17.90
2022-09-14T20:19:23.235Z,17.90
2022-09-14T20:22:13.693Z,17.90
2022-09-14T20:25:05.685Z,17.90
2022-09-14T20:27:53.154Z,17.90
2022-09-14T20:30:41.179Z,17.90
2022-09-14T20:33:29.402Z,17.90
2022-09-14T20:36:20.799Z,17.80
2022-09-14T20:39:09.195Z,17.90
2022-09-14T20:41:56.605Z,17.90
2022-09-14T20:44:44.134Z,17.90
2022-09-14T20:47:31.559Z,17.90
2022-09-14T20:50:18.978Z,17.90
2022-09-14T20:53:06.414Z,17.90
2022-09-14T20:56:26.202Z,17.90
2022-09-14T20:59:18.037Z,17.90
2022-09-14T21:02:05.917Z,18.00
2022-09-14T21:04:53.486Z,18.00
2022-09-14T21:07:40.974Z,18.00
2022-09-14T21:10:29.520Z,18.00
2022-09-14T21:13:17.208Z,18.00
2022-09-14T21:16:21.315Z,18.00
2022-09-14T21:19:24.249Z,18.00
2022-09-14T21:22:11.766Z,18.00
2022-09-14T21:24:59.175Z,17.90
2022-09-14T21:27:46.649Z,17.90
2022-09-14T21:30:34.159Z,17.90
2022-09-14T21:33:21.614Z,17.80
2022-09-14T21:36:13.990Z,17.80
2022-09-14T21:39:08.622Z,17.70
2022-09-14T21:41:59.333Z,17.70
2022-09-14T21:44:47.291Z,17.70
2022-09-14T21:47:34.839Z,17.90
2022-09-14T21:50:22.305Z,17.70
2022-09-14T21:53:10.098Z,17.70
2022-09-14T21:55:57.572Z,17.70
2022-09-14T21:58:51.290Z,17.80
2022-09-14T22:01:39.087Z,17.80
2022-09-14T22:04:26.999Z,17.80
2022-09-14T22:07:14.400Z,17.90
2022-09-14T22:10:01.854Z,17.90
2022-09-14T22:12:49.311Z,17.80
2022-09-14T22:15:36.788Z,17.80
2022-09-14T22:18:24.556Z,17.70
2022-09-14T22:21:11.905Z,17.70
2022-09-14T22:24:02.649Z,17.70
2022-09-14T22:26:50.644Z,17.60
2022-09-14T22:29:44.109Z,17.60
2022-09-14T22:32:31.561Z,17.60
2022-09-14T22:35:18.986Z,17.60
2022-09-14T22:38:08.189Z,17.50
2022-09-14T22:41:08.234Z,17.50
2022-09-14T22:43:57.050Z,17.50
2022-09-14T22:46:44.893Z,17.50
2022-09-14T22:49:32.286Z,17.50
2022-09-14T22:52:19.705Z,17.50
2022-09-14T22:55:07.821Z,17.50
2022-09-14T22:57:55.319Z,17.60
2022-09-14T23:00:44.396Z,17.60
2022-09-14T23:03:31.841Z,17.60
2022-09-14T23:06:19.294Z,17.60
2022-09-14T23:09:10.159Z,17.60
2022-09-14T23:11:57.760Z,17.60
2022-09-14T23:14:45.164Z,17.60
2022-09-14T23:17:32.670Z,17.60
2022-09-14T23:20:20.206Z,17.50
2022-09-14T23:23:08.541Z,17.50
2022-09-14T23:25:56.075Z,17.50
2022-09-14T23:28:43.562Z,17.50
2022-09-14T23:31:32.549Z,17.50
2022-09-14T23:34:19.991Z,17.40
2022-09-14T23:37:07.495Z,17.40
2022-09-14T23:39:54.991Z,17.40
2022-09-14T23:42:42.430Z,17.40
2022-09-14T23:45:29.857Z,17.40
2022-09-14T23:48:17.315Z,17.30
2022-09-14T23:51:08.820Z,17.30
2022-09-14T23:53:56.316Z,17.30
2022-09-14T23:56:44.014Z,17.30
2022-09-14T23:59:31.544Z,17.30
